createdAt,value
2023-03-07T00:00:10.000Z,273.71
2023-03-07T00:02:16.000Z,273.71
2023-03-07T00:03:43.000Z,273.71
2023-03-07T00:05:49.000Z,273.71
2023-03-07T00:07:15.000Z,273.71
2023-03-07T00:09:22.000Z,273.71
2023-03-07T00:10:48.000Z,273.71
2023-03-07T00:12:54.000Z,273.71
2023-03-07T00:14:21.000Z,273.71
2023-03-07T00:16:27.000Z,273.71
2023-03-07T00:17:53.000Z,273.71
2023-03-07T00:19:58.000Z,273.77
2023-03-07T00:21:25.000Z,273.77
2023-03-07T00:23:31.000Z,273.71
2023-03-07T00:24:58.000Z,273.71
2023-03-07T00:27:04.000Z,273.71
2023-03-07T00:29:55.000Z,273.77
2023-03-07T00:31:21.000Z,273.77
2023-03-07T00:33:25.000Z,273.84
2023-03-07T00:34:52.000Z,273.84
2023-03-07T00:36:58.000Z,273.84
2023-03-07T00:38:24.000Z,273.84
2023-03-07T00:40:30.000Z,273.84
2023-03-07T00:41:57.000Z,273.77
2023-03-07T00:44:03.000Z,273.84
2023-03-07T00:45:29.000Z,273.84
2023-03-07T00:47:36.000Z,273.77
2023-03-07T00:49:02.000Z,273.77
2023-03-07T00:51:08.000Z,273.77
2023-03-07T00:52:35.000Z,273.77
2023-03-07T00:54:41.000Z,273.77
2023-03-07T00:56:08.000Z,273.84
2023-03-07T00:58:14.000Z,273.84
2023-03-07T00:59:40.000Z,273.84
2023-03-07T01:01:46.000Z,273.9
2023-03-07T01:03:13.000Z,273.84
2023-03-07T01:05:19.000Z,273.84
2023-03-07T01:08:10.000Z,273.84
2023-03-07T01:09:37.000Z,273.9
2023-03-07T01:11:43.000Z,273.84
2023-03-07T01:13:09.000Z,273.84
2023-03-07T01:15:15.000Z,273.84
2023-03-07T01:16:42.000Z,273.84
2023-03-07T01:18:48.000Z,273.84
2023-03-07T01:20:15.000Z,273.84
2023-03-07T01:22:21.000Z,273.84
2023-03-07T01:23:47.000Z,273.84
2023-03-07T01:25:53.000Z,273.84
2023-03-07T01:27:20.000Z,273.84
2023-03-07T01:29:26.000Z,273.84
2023-03-07T01:30:53.000Z,273.84
2023-03-07T01:32:59.000Z,273.84
2023-03-07T01:34:26.000Z,273.84
2023-03-07T01:36:32.000Z,273.84
2023-03-07T01:37:59.000Z,273.84
2023-03-07T01:40:05.000Z,273.84
2023-03-07T01:41:31.000Z,273.84
2023-03-07T01:43:37.000Z,273.9
2023-03-07T01:46:29.000Z,273.84
2023-03-07T01:47:55.000Z,273.77
2023-03-07T01:50:01.000Z,273.84
2023-03-07T01:51:28.000Z,273.84
2023-03-07T01:53:34.000Z,273.84
2023-03-07T01:55:01.000Z,273.84
2023-03-07T01:57:07.000Z,273.84
2023-03-07T01:58:33.000Z,273.84
2023-03-07T02:00:39.000Z,273.9
2023-03-07T02:02:06.000Z,273.84
2023-03-07T02:04:12.000Z,273.84
2023-03-07T02:05:38.000Z,273.84
2023-03-07T02:07:45.000Z,273.84
2023-03-07T02:09:11.000Z,273.84
2023-03-07T02:11:17.000Z,273.84
2023-03-07T02:12:44.000Z,273.84
2023-03-07T02:14:50.000Z,273.84
2023-03-07T02:16:16.000Z,273.84
2023-03-07T02:18:23.000Z,273.84
2023-03-07T02:19:49.000Z,273.84
2023-03-07T02:21:55.000Z,273.84
2023-03-07T02:24:46.000Z,273.84
2023-03-07T02:26:13.000Z,273.84
2023-03-07T02:28:19.000Z,273.84
2023-03-07T02:29:46.000Z,273.84
2023-03-07T02:31:52.000Z,273.84
2023-03-07T02:33:18.000Z,273.84
2023-03-07T02:35:25.000Z,273.84
2023-03-07T02:36:51.000Z,273.9
2023-03-07T02:38:57.000Z,273.9
2023-03-07T02:40:24.000Z,273.9
2023-03-07T02:42:30.000Z,273.84
2023-03-07T02:43:57.000Z,273.9
2023-03-07T02:46:03.000Z,273.9
2023-03-07T02:47:29.000Z,273.9
2023-03-07T02:49:35.000Z,273.9
2023-03-07T02:51:02.000Z,273.96
2023-03-07T02:53:08.000Z,273.96
2023-03-07T02:54:34.000Z,273.96
2023-03-07T02:56:41.000Z,273.96
2023-03-07T02:58:07.000Z,273.96
2023-03-07T03:00:13.000Z,273.96
2023-03-07T03:03:04.000Z,274.02
2023-03-07T03:04:31.000Z,274.02
2023-03-07T03:06:37.000Z,274.02
2023-03-07T03:08:04.000Z,274.02
2023-03-07T03:10:10.000Z,274.02
2023-03-07T03:11:36.000Z,274.09
2023-03-07T03:13:42.000Z,274.02
2023-03-07T03:15:09.000Z,274.02
2023-03-07T03:17:15.000Z,274.02
2023-03-07T03:18:42.000Z,274.02
2023-03-07T03:20:48.000Z,274.09
2023-03-07T03:22:14.000Z,274.09
2023-03-07T03:24:21.000Z,274.02
2023-03-07T03:25:47.000Z,274.09
2023-03-07T03:27:53.000Z,274.09
2023-03-07T03:29:20.000Z,274.09
2023-03-07T03:31:26.000Z,274.09
2023-03-07T03:32:53.000Z,274.09
2023-03-07T03:34:59.000Z,274.09
2023-03-07T03:36:25.000Z,274.09
2023-03-07T03:38:31.000Z,274.09
2023-03-07T03:41:23.000Z,274.15
2023-03-07T03:42:49.000Z,274.09
2023-03-07T03:44:55.000Z,274.09
2023-03-07T03:46:22.000Z,274.09
2023-03-07T03:48:28.000Z,274.09
2023-03-07T03:49:54.000Z,274.15
2023-03-07T03:52:00.000Z,274.21
2023-03-07T03:53:27.000Z,274.21
2023-03-07T03:55:33.000Z,274.15
2023-03-07T03:57:00.000Z,274.21
2023-03-07T03:59:06.000Z,274.21
2023-03-07T04:00:32.000Z,274.21
2023-03-07T04:02:39.000Z,274.21
2023-03-07T04:04:05.000Z,274.21
2023-03-07T04:06:11.000Z,274.21
2023-03-07T04:07:38.000Z,274.21
2023-03-07T04:09:44.000Z,274.21
2023-03-07T04:11:11.000Z,274.21
2023-03-07T04:13:17.000Z,274.21
2023-03-07T04:14:43.000Z,274.21
2023-03-07T04:16:49.000Z,274.21
2023-03-07T04:19:40.000Z,274.21
2023-03-07T04:21:07.000Z,274.21
2023-03-07T04:23:13.000Z,274.15
2023-03-07T04:24:39.000Z,274.15
2023-03-07T04:26:46.000Z,274.15
2023-03-07T04:28:12.000Z,274.21
2023-03-07T04:30:18.000Z,274.21
2023-03-07T04:31:45.000Z,274.21
2023-03-07T04:33:51.000Z,274.21
2023-03-07T04:35:17.000Z,274.21
2023-03-07T04:37:23.000Z,274.21
2023-03-07T04:38:50.000Z,274.21
2023-03-07T04:40:56.000Z,274.21
2023-03-07T04:42:23.000Z,274.21
2023-03-07T04:44:29.000Z,274.27
2023-03-07T04:45:55.000Z,274.27
2023-03-07T04:48:01.000Z,274.27
2023-03-07T04:49:28.000Z,274.34
2023-03-07T04:51:34.000Z,274.27
2023-03-07T04:53:01.000Z,274.27
2023-03-07T04:55:07.000Z,274.34
2023-03-07T04:57:58.000Z,274.34
2023-03-07T04:59:25.000Z,274.34
2023-03-07T05:01:31.000Z,274.34
2023-03-07T05:02:58.000Z,274.34
2023-03-07T05:05:04.000Z,274.27
2023-03-07T05:06:30.000Z,274.27
2023-03-07T05:08:36.000Z,274.34
2023-03-07T05:10:03.000Z,274.27
2023-03-07T05:12:09.000Z,274.27
2023-03-07T05:13:35.000Z,274.27
2023-03-07T05:15:42.000Z,274.34
2023-03-07T05:17:08.000Z,274.4
2023-03-07T05:19:14.000Z,274.34
2023-03-07T05:20:41.000Z,274.34
2023-03-07T05:22:47.000Z,274.4
2023-03-07T05:24:14.000Z,274.4
2023-03-07T05:26:20.000Z,274.4
2023-03-07T05:27:46.000Z,274.4
2023-03-07T05:29:52.000Z,274.4
2023-03-07T05:31:19.000Z,274.4
2023-03-07T05:33:25.000Z,274.4
2023-03-07T05:36:16.000Z,274.4
2023-03-07T05:37:43.000Z,274.4
2023-03-07T05:39:49.000Z,274.4
2023-03-07T05:41:15.000Z,274.4
2023-03-07T05:43:21.000Z,274.4
2023-03-07T05:44:48.000Z,274.46
2023-03-07T05:46:54.000Z,274.46
2023-03-07T05:48:20.000Z,274.46
2023-03-07T05:50:26.000Z,274.46
2023-03-07T05:51:53.000Z,274.46
2023-03-07T05:53:59.000Z,274.46
2023-03-07T05:55:26.000Z,274.46
2023-03-07T05:57:32.000Z,274.46
2023-03-07T05:58:58.000Z,274.52
2023-03-07T06:01:04.000Z,274.52
2023-03-07T06:02:31.000Z,274.52
2023-03-07T06:04:37.000Z,274.52
2023-03-07T06:06:04.000Z,274.52
2023-03-07T06:08:10.000Z,274.52
2023-03-07T06:09:36.000Z,274.59
2023-03-07T06:11:42.000Z,274.59
2023-03-07T06:14:34.000Z,274.59
2023-03-07T06:16:00.000Z,274.59
2023-03-07T06:18:06.000Z,274.52
2023-03-07T06:19:33.000Z,274.59
2023-03-07T06:21:39.000Z,274.65
2023-03-07T06:23:05.000Z,274.65
2023-03-07T06:25:11.000Z,274.65
2023-03-07T06:26:38.000Z,274.71
2023-03-07T06:28:44.000Z,274.71
2023-03-07T06:30:11.000Z,274.71
2023-03-07T06:32:17.000Z,274.71
2023-03-07T06:33:44.000Z,274.71
2023-03-07T06:35:50.000Z,274.71
2023-03-07T06:37:16.000Z,274.77
2023-03-07T06:39:23.000Z,274.71
2023-03-07T06:40:49.000Z,274.77
2023-03-07T06:42:55.000Z,274.77
2023-03-07T06:44:22.000Z,274.71
2023-03-07T06:46:28.000Z,274.77
2023-03-07T06:47:54.000Z,274.84
2023-03-07T06:50:01.000Z,274.84
2023-03-07T06:52:52.000Z,274.84
2023-03-07T06:54:19.000Z,274.84
2023-03-07T06:56:25.000Z,274.84
2023-03-07T06:57:51.000Z,274.84
2023-03-07T06:59:57.000Z,274.84
2023-03-07T07:01:24.000Z,274.84
2023-03-07T07:03:30.000Z,274.84
2023-03-07T07:04:56.000Z,274.9
2023-03-07T07:07:05.000Z,274.96
2023-03-07T07:08:31.000Z,274.9
2023-03-07T07:10:38.000Z,274.96
2023-03-07T07:12:04.000Z,274.96
2023-03-07T07:14:10.000Z,274.96
2023-03-07T07:15:37.000Z,274.96
2023-03-07T07:17:43.000Z,274.96
2023-03-07T07:19:10.000Z,274.96
2023-03-07T07:21:16.000Z,274.96
2023-03-07T07:22:42.000Z,274.96
2023-03-07T07:24:48.000Z,275.02
2023-03-07T07:26:15.000Z,275.02
2023-03-07T07:28:21.000Z,275.02
2023-03-07T07:31:12.000Z,275.02
2023-03-07T07:32:39.000Z,275.02
2023-03-07T07:34:45.000Z,275.02
2023-03-07T07:36:12.000Z,275.09
2023-03-07T07:38:18.000Z,275.09
2023-03-07T07:39:44.000Z,275.15
2023-03-07T07:41:50.000Z,275.15
2023-03-07T07:43:17.000Z,275.15
2023-03-07T07:45:23.000Z,275.15
2023-03-07T07:46:50.000Z,275.15
2023-03-07T07:48:56.000Z,275.15
2023-03-07T07:50:22.000Z,275.21
2023-03-07T07:52:28.000Z,275.21
2023-03-07T07:53:55.000Z,275.21
2023-03-07T07:56:01.000Z,275.21
2023-03-07T07:57:28.000Z,275.27
2023-03-07T07:59:34.000Z,275.27
2023-03-07T08:01:00.000Z,275.27
2023-03-07T08:03:06.000Z,275.27
2023-03-07T08:04:33.000Z,275.34
2023-03-07T08:06:39.000Z,275.34
2023-03-07T08:09:30.000Z,275.34
2023-03-07T08:10:57.000Z,275.4
2023-03-07T08:13:03.000Z,275.4
2023-03-07T08:14:29.000Z,275.46
2023-03-07T08:16:36.000Z,275.46
2023-03-07T08:18:02.000Z,275.52
2023-03-07T08:20:08.000Z,275.52
2023-03-07T08:21:35.000Z,275.65
2023-03-07T08:23:41.000Z,275.71
2023-03-07T08:25:08.000Z,275.77
2023-03-07T08:27:14.000Z,275.84
2023-03-07T08:28:40.000Z,275.9
2023-03-07T08:30:46.000Z,275.96
2023-03-07T08:32:13.000Z,276.02
2023-03-07T08:34:19.000Z,276.15
2023-03-07T08:35:46.000Z,276.21
2023-03-07T08:37:52.000Z,276.4
2023-03-07T08:39:18.000Z,276.59
2023-03-07T08:41:25.000Z,276.65
2023-03-07T08:42:51.000Z,276.77
2023-03-07T08:44:57.000Z,276.71
2023-03-07T08:47:49.000Z,276.77
2023-03-07T08:49:15.000Z,276.9
2023-03-07T08:51:21.000Z,277.02
2023-03-07T08:52:48.000Z,276.96
2023-03-07T08:54:54.000Z,277.02
2023-03-07T08:56:21.000Z,276.9
2023-03-07T08:58:27.000Z,277.02
2023-03-07T08:59:53.000Z,277.02
2023-03-07T09:01:59.000Z,276.96
2023-03-07T09:03:26.000Z,277.15
2023-03-07T09:05:32.000Z,276.9
2023-03-07T09:06:59.000Z,277.02
2023-03-07T09:09:05.000Z,276.96
2023-03-07T09:10:32.000Z,276.96
2023-03-07T09:12:38.000Z,276.96
2023-03-07T09:14:05.000Z,277.02
2023-03-07T09:16:11.000Z,276.9
2023-03-07T09:17:37.000Z,277.02
2023-03-07T09:19:44.000Z,277.21
2023-03-07T09:21:10.000Z,277.27
2023-03-07T09:23:16.000Z,277.34
2023-03-07T09:26:07.000Z,277.27
2023-03-07T09:27:34.000Z,277.34
2023-03-07T09:29:40.000Z,277.27
2023-03-07T09:31:07.000Z,277.21
2023-03-07T09:33:13.000Z,277.27
2023-03-07T09:34:39.000Z,277.4
2023-03-07T09:36:45.000Z,277.4
2023-03-07T09:38:12.000Z,277.46
2023-03-07T09:40:18.000Z,277.34
2023-03-07T09:41:45.000Z,277.4
2023-03-07T09:43:51.000Z,277.21
2023-03-07T09:45:17.000Z,277.27
2023-03-07T09:47:23.000Z,277.4
2023-03-07T09:48:50.000Z,277.34
2023-03-07T09:50:56.000Z,277.34
2023-03-07T09:52:27.000Z,277.27
2023-03-07T09:54:34.000Z,277.4
2023-03-07T09:56:00.000Z,277.4
2023-03-07T09:58:06.000Z,277.4
2023-03-07T09:59:33.000Z,277.46
2023-03-07T10:01:39.000Z,277.34
2023-03-07T10:04:30.000Z,277.21
2023-03-07T10:05:57.000Z,277.21
2023-03-07T10:08:03.000Z,277.4
2023-03-07T10:09:29.000Z,277.59
2023-03-07T10:11:36.000Z,277.52
2023-03-07T10:13:02.000Z,277.46
2023-03-07T10:15:08.000Z,277.52
2023-03-07T10:16:35.000Z,277.46
2023-03-07T10:18:41.000Z,277.59
2023-03-07T10:20:08.000Z,277.71
2023-03-07T10:22:14.000Z,277.65
2023-03-07T10:23:40.000Z,277.71
2023-03-07T10:25:47.000Z,277.65
2023-03-07T10:27:13.000Z,277.65
2023-03-07T10:29:19.000Z,277.96
2023-03-07T10:30:46.000Z,277.96
2023-03-07T10:32:52.000Z,278.09
2023-03-07T10:34:18.000Z,278.15
2023-03-07T10:36:31.000Z,278.21
2023-03-07T10:37:58.000Z,278.21
2023-03-07T10:40:04.000Z,278.15
2023-03-07T10:42:55.000Z,278.09
2023-03-07T10:44:22.000Z,278.09
2023-03-07T10:46:28.000Z,278.09
2023-03-07T10:47:54.000Z,277.96
2023-03-07T10:50:01.000Z,277.96
2023-03-07T10:51:27.000Z,277.96
2023-03-07T10:53:33.000Z,277.84
2023-03-07T10:55:00.000Z,277.77
2023-03-07T10:57:06.000Z,277.65
2023-03-07T10:58:32.000Z,277.65
2023-03-07T11:00:38.000Z,277.71
2023-03-07T11:02:05.000Z,277.71
2023-03-07T11:04:11.000Z,277.65
2023-03-07T11:05:37.000Z,277.71
2023-03-07T11:07:44.000Z,277.71
2023-03-07T11:09:10.000Z,277.59
2023-03-07T11:11:16.000Z,277.46
2023-03-07T11:12:43.000Z,277.4
2023-03-07T11:14:49.000Z,277.34
2023-03-07T11:16:15.000Z,277.34
2023-03-07T11:18:22.000Z,277.34
2023-03-07T11:21:13.000Z,277.4
2023-03-07T11:22:39.000Z,277.46
2023-03-07T11:24:45.000Z,277.46
2023-03-07T11:26:12.000Z,277.46
2023-03-07T11:28:18.000Z,277.46
2023-03-07T11:29:45.000Z,277.4
2023-03-07T11:31:51.000Z,277.34
2023-03-07T11:33:17.000Z,277.34
2023-03-07T11:35:23.000Z,277.4
2023-03-07T11:36:50.000Z,277.4
2023-03-07T11:38:56.000Z,277.27
2023-03-07T11:40:22.000Z,277.27
2023-03-07T11:42:28.000Z,277.27
2023-03-07T11:43:55.000Z,277.34
2023-03-07T11:46:01.000Z,277.34
2023-03-07T11:47:28.000Z,277.27
2023-03-07T11:49:34.000Z,277.15
2023-03-07T11:51:00.000Z,277.09
2023-03-07T11:53:06.000Z,277.09
2023-03-07T11:54:33.000Z,276.96
2023-03-07T11:56:39.000Z,277.02
2023-03-07T11:59:31.000Z,277.09
2023-03-07T12:00:57.000Z,277.27
2023-03-07T12:03:03.000Z,277.27
2023-03-07T12:04:30.000Z,277.34
2023-03-07T12:06:36.000Z,277.4
2023-03-07T12:08:02.000Z,277.46
2023-03-07T12:10:08.000Z,277.46
2023-03-07T12:11:35.000Z,277.4
2023-03-07T12:13:41.000Z,277.4
2023-03-07T12:15:08.000Z,277.46
2023-03-07T12:17:14.000Z,277.52
2023-03-07T12:18:40.000Z,277.52
2023-03-07T12:20:47.000Z,277.46
2023-03-07T12:22:13.000Z,277.46
2023-03-07T12:24:19.000Z,277.34
2023-03-07T12:25:46.000Z,277.4
2023-03-07T12:27:52.000Z,277.4
2023-03-07T12:29:18.000Z,277.46
2023-03-07T12:31:24.000Z,277.34
2023-03-07T12:32:51.000Z,277.34
2023-03-07T12:34:58.000Z,277.34
2023-03-07T12:37:49.000Z,277.15
2023-03-07T12:39:15.000Z,277.15
2023-03-07T12:41:21.000Z,277.21
2023-03-07T12:42:48.000Z,277.21
2023-03-07T12:44:54.000Z,277.21
2023-03-07T12:46:21.000Z,277.21
2023-03-07T12:48:27.000Z,277.21
2023-03-07T12:49:53.000Z,277.27
2023-03-07T12:51:59.000Z,277.27
2023-03-07T12:53:26.000Z,277.34
2023-03-07T12:55:32.000Z,277.27
2023-03-07T12:56:58.000Z,277.27
2023-03-07T12:59:04.000Z,277.27
2023-03-07T13:00:31.000Z,277.27
2023-03-07T13:02:37.000Z,277.34
2023-03-07T13:04:06.000Z,277.34
2023-03-07T13:06:12.000Z,277.34
2023-03-07T13:07:39.000Z,277.34
2023-03-07T13:09:45.000Z,277.34
2023-03-07T13:11:11.000Z,277.34
2023-03-07T13:13:17.000Z,277.34
2023-03-07T13:16:09.000Z,277.34
2023-03-07T13:17:35.000Z,277.34
2023-03-07T13:19:41.000Z,277.34
2023-03-07T13:21:08.000Z,277.34
2023-03-07T13:23:14.000Z,277.4
2023-03-07T13:24:41.000Z,277.46
2023-03-07T13:26:47.000Z,277.46
2023-03-07T13:28:13.000Z,277.46
2023-03-07T13:30:19.000Z,277.46
2023-03-07T13:31:46.000Z,277.46
2023-03-07T13:33:52.000Z,277.46
2023-03-07T13:35:19.000Z,277.4
2023-03-07T13:37:25.000Z,277.4
2023-03-07T13:38:52.000Z,277.46
2023-03-07T13:40:58.000Z,277.4
2023-03-07T13:42:25.000Z,277.4
2023-03-07T13:44:31.000Z,277.4
2023-03-07T13:45:57.000Z,277.4
2023-03-07T13:48:03.000Z,277.4
2023-03-07T13:49:30.000Z,277.4
2023-03-07T13:51:36.000Z,277.34
2023-03-07T13:54:28.000Z,277.4
2023-03-07T13:55:54.000Z,277.34
2023-03-07T13:58:00.000Z,277.34
2023-03-07T13:59:27.000Z,277.34
2023-03-07T14:01:33.000Z,277.34
2023-03-07T14:03:00.000Z,277.34
2023-03-07T14:05:06.000Z,277.34
2023-03-07T14:06:32.000Z,277.34
2023-03-07T14:08:38.000Z,277.34
2023-03-07T14:10:05.000Z,277.34
2023-03-07T14:12:25.000Z,277.4
2023-03-07T14:13:51.000Z,277.46
2023-03-07T14:15:57.000Z,277.46
2023-03-07T14:17:24.000Z,277.52
2023-03-07T14:19:30.000Z,277.46
2023-03-07T14:20:57.000Z,277.46
2023-03-07T14:23:03.000Z,277.52
2023-03-07T14:24:30.000Z,277.52
2023-03-07T14:26:36.000Z,277.59
2023-03-07T14:28:03.000Z,277.59
2023-03-07T14:30:09.000Z,277.59
2023-03-07T14:33:00.000Z,277.59
2023-03-07T14:34:27.000Z,277.59
2023-03-07T14:36:33.000Z,277.59
2023-03-07T14:37:59.000Z,277.59
2023-03-07T14:40:05.000Z,277.59
2023-03-07T14:41:32.000Z,277.65
2023-03-07T14:43:38.000Z,277.59
2023-03-07T14:45:04.000Z,277.65
2023-03-07T14:47:10.000Z,277.65
2023-03-07T14:48:37.000Z,277.65
2023-03-07T14:50:43.000Z,277.65
2023-03-07T14:52:10.000Z,277.65
2023-03-07T14:54:32.000Z,277.65
2023-03-07T14:55:58.000Z,277.65
2023-03-07T14:58:04.000Z,277.59
2023-03-07T14:59:31.000Z,277.59
2023-03-07T15:01:37.000Z,277.59
2023-03-07T15:03:04.000Z,277.59
2023-03-07T15:05:10.000Z,277.65
2023-03-07T15:06:36.000Z,277.59
2023-03-07T15:08:43.000Z,277.59
2023-03-07T15:11:34.000Z,277.65
2023-03-07T15:13:00.000Z,277.71
2023-03-07T15:15:07.000Z,277.71
2023-03-07T15:16:33.000Z,277.65
2023-03-07T15:18:40.000Z,277.65
2023-03-07T15:20:06.000Z,277.71
2023-03-07T15:22:12.000Z,277.71
2023-03-07T15:23:39.000Z,277.71
2023-03-07T15:25:45.000Z,277.71
2023-03-07T15:27:11.000Z,277.71
2023-03-07T15:29:18.000Z,277.71
2023-03-07T15:30:44.000Z,277.71
2023-03-07T15:32:50.000Z,277.71
2023-03-07T15:34:17.000Z,277.71
2023-03-07T15:36:23.000Z,277.71
2023-03-07T15:37:50.000Z,277.71
2023-03-07T15:39:56.000Z,277.71
2023-03-07T15:41:22.000Z,277.77
2023-03-07T15:43:28.000Z,277.71
2023-03-07T15:44:55.000Z,277.77
2023-03-07T15:47:01.000Z,277.71
2023-03-07T15:49:52.000Z,277.71
2023-03-07T15:51:19.000Z,277.77
2023-03-07T15:53:25.000Z,277.77
2023-03-07T15:54:51.000Z,277.71
2023-03-07T15:56:58.000Z,277.71
2023-03-07T15:58:24.000Z,277.77
2023-03-07T16:00:30.000Z,277.77
2023-03-07T16:01:57.000Z,277.77
2023-03-07T16:04:03.000Z,277.77
2023-03-07T16:05:30.000Z,277.77
2023-03-07T16:07:36.000Z,277.77
2023-03-07T16:09:03.000Z,277.77
2023-03-07T16:11:09.000Z,277.77
2023-03-07T16:12:35.000Z,277.77
2023-03-07T16:14:42.000Z,277.77
2023-03-07T16:16:08.000Z,277.77
2023-03-07T16:18:14.000Z,277.77
2023-03-07T16:19:41.000Z,277.77
2023-03-07T16:21:47.000Z,277.77
2023-03-07T16:23:14.000Z,277.77
2023-03-07T16:25:20.000Z,277.71
2023-03-07T16:28:11.000Z,277.77
2023-03-07T16:29:38.000Z,277.77
2023-03-07T16:31:44.000Z,277.71
2023-03-07T16:33:11.000Z,277.71
2023-03-07T16:35:17.000Z,277.71
2023-03-07T16:36:43.000Z,277.65
2023-03-07T16:38:49.000Z,277.65
2023-03-07T16:40:16.000Z,277.65
2023-03-07T16:42:22.000Z,277.65
2023-03-07T16:43:49.000Z,277.65
2023-03-07T16:45:55.000Z,277.59
2023-03-07T16:47:22.000Z,277.59
2023-03-07T16:49:28.000Z,277.59
2023-03-07T16:50:54.000Z,277.59
2023-03-07T16:53:00.000Z,277.59
2023-03-07T16:54:27.000Z,277.59
2023-03-07T16:56:33.000Z,277.59
2023-03-07T16:58:00.000Z,277.59
2023-03-07T17:00:06.000Z,277.52
2023-03-07T17:01:33.000Z,277.52
2023-03-07T17:03:39.000Z,277.52
2023-03-07T17:06:30.000Z,277.52
2023-03-07T17:08:04.000Z,277.52
2023-03-07T17:10:10.000Z,277.52
2023-03-07T17:11:36.000Z,277.46
2023-03-07T17:13:43.000Z,277.46
2023-03-07T17:15:09.000Z,277.52
2023-03-07T17:17:15.000Z,277.46
2023-03-07T17:18:42.000Z,277.46
2023-03-07T17:20:48.000Z,277.46
2023-03-07T17:22:15.000Z,277.46
2023-03-07T17:24:24.000Z,277.46
2023-03-07T17:25:50.000Z,277.46
2023-03-07T17:27:56.000Z,277.46
2023-03-07T17:29:23.000Z,277.4
2023-03-07T17:31:29.000Z,277.46
2023-03-07T17:32:56.000Z,277.46
2023-03-07T17:35:02.000Z,277.4
2023-03-07T17:36:28.000Z,277.4
2023-03-07T17:38:35.000Z,277.46
2023-03-07T17:40:01.000Z,277.4
2023-03-07T17:42:07.000Z,277.4
2023-03-07T17:44:58.000Z,277.4
2023-03-07T17:46:25.000Z,277.4
2023-03-07T17:48:31.000Z,277.34
2023-03-07T17:49:57.000Z,277.4
2023-03-07T17:52:03.000Z,277.34
2023-03-07T17:53:30.000Z,277.34
2023-03-07T17:55:36.000Z,277.27
2023-03-07T17:57:03.000Z,277.34
2023-03-07T17:59:09.000Z,277.27
2023-03-07T18:00:36.000Z,277.27
2023-03-07T18:02:42.000Z,277.27
2023-03-07T18:04:08.000Z,277.21
2023-03-07T18:06:14.000Z,277.21
2023-03-07T18:07:41.000Z,277.27
2023-03-07T18:09:47.000Z,277.21
2023-03-07T18:11:30.000Z,277.15
2023-03-07T18:13:36.000Z,277.15
2023-03-07T18:15:02.000Z,277.21
2023-03-07T18:17:09.000Z,277.15
2023-03-07T18:18:35.000Z,277.15
2023-03-07T18:20:42.000Z,277.09
2023-03-07T18:23:33.000Z,277.15
2023-03-07T18:24:59.000Z,277.15
2023-03-07T18:27:05.000Z,277.15
2023-03-07T18:28:32.000Z,277.15
2023-03-07T18:30:38.000Z,277.09
2023-03-07T18:32:04.000Z,277.15
2023-03-07T18:34:10.000Z,277.09
2023-03-07T18:35:37.000Z,277.09
2023-03-07T18:37:43.000Z,277.15
2023-03-07T18:39:10.000Z,277.15
2023-03-07T18:41:16.000Z,277.15
2023-03-07T18:42:43.000Z,277.15
2023-03-07T18:44:49.000Z,277.15
2023-03-07T18:46:15.000Z,277.15
2023-03-07T18:48:21.000Z,277.15
2023-03-07T18:49:48.000Z,277.09
2023-03-07T18:51:54.000Z,277.09
2023-03-07T18:53:21.000Z,277.09
2023-03-07T18:55:27.000Z,277.09
2023-03-07T18:56:54.000Z,277.09
2023-03-07T18:59:00.000Z,277.09
2023-03-07T19:01:51.000Z,276.71
2023-03-07T19:03:17.000Z,276.4
2023-03-07T19:05:23.000Z,276.09
2023-03-07T19:06:50.000Z,275.9
2023-03-07T19:08:56.000Z,275.65
2023-03-07T19:10:23.000Z,275.52
2023-03-07T19:12:29.000Z,275.4
2023-03-07T19:13:55.000Z,275.4
2023-03-07T19:16:01.000Z,275.34
2023-03-07T19:17:28.000Z,275.34
2023-03-07T19:19:34.000Z,275.34
2023-03-07T19:21:00.000Z,275.27
2023-03-07T19:23:07.000Z,275.27
2023-03-07T19:24:33.000Z,275.15
2023-03-07T19:26:39.000Z,275.09
2023-03-07T19:28:06.000Z,275.09
2023-03-07T19:30:12.000Z,275.09
2023-03-07T19:31:38.000Z,275.02
2023-03-07T19:33:45.000Z,275.02
2023-03-07T19:35:11.000Z,274.96
2023-03-07T19:37:17.000Z,274.9
2023-03-07T19:40:08.000Z,274.96
2023-03-07T19:41:35.000Z,274.96
2023-03-07T19:43:41.000Z,274.9
2023-03-07T19:45:07.000Z,274.9
2023-03-07T19:47:13.000Z,274.84
2023-03-07T19:48:40.000Z,274.84
2023-03-07T19:50:46.000Z,274.84
2023-03-07T19:52:13.000Z,274.84
2023-03-07T19:54:19.000Z,274.84
2023-03-07T19:55:45.000Z,274.84
2023-03-07T19:57:51.000Z,274.77
2023-03-07T19:59:18.000Z,274.77
2023-03-07T20:01:24.000Z,274.77
2023-03-07T20:02:51.000Z,274.77
2023-03-07T20:04:57.000Z,274.77
2023-03-07T20:06:23.000Z,274.71
2023-03-07T20:08:29.000Z,274.71
2023-03-07T20:09:56.000Z,274.71
2023-03-07T20:12:02.000Z,274.71
2023-03-07T20:13:29.000Z,274.71
2023-03-07T20:15:35.000Z,274.65
2023-03-07T20:18:25.000Z,274.65
2023-03-07T20:19:52.000Z,274.65
2023-03-07T20:21:58.000Z,274.65
2023-03-07T20:23:25.000Z,274.65
2023-03-07T20:25:31.000Z,274.65
2023-03-07T20:26:57.000Z,274.59
2023-03-07T20:29:03.000Z,274.59
2023-03-07T20:30:30.000Z,274.52
2023-03-07T20:32:36.000Z,274.52
2023-03-07T20:34:03.000Z,274.46
2023-03-07T20:36:09.000Z,274.46
2023-03-07T20:37:35.000Z,274.46
2023-03-07T20:39:41.000Z,274.4
2023-03-07T20:41:08.000Z,274.46
2023-03-07T20:43:14.000Z,274.46
2023-03-07T20:44:40.000Z,274.4
2023-03-07T20:46:47.000Z,274.4
2023-03-07T20:48:13.000Z,274.4
2023-03-07T20:50:19.000Z,274.4
2023-03-07T20:51:46.000Z,274.4
2023-03-07T20:53:52.000Z,274.4
2023-03-07T20:56:43.000Z,274.4
2023-03-07T20:58:09.000Z,274.4
2023-03-07T21:00:15.000Z,274.4
2023-03-07T21:01:42.000Z,274.34
2023-03-07T21:03:48.000Z,274.4
2023-03-07T21:05:15.000Z,274.34
2023-03-07T21:07:21.000Z,274.34
2023-03-07T21:08:47.000Z,274.34
2023-03-07T21:10:54.000Z,274.27
2023-03-07T21:12:20.000Z,274.34
2023-03-07T21:14:26.000Z,274.27
2023-03-07T21:15:53.000Z,274.27
2023-03-07T21:17:59.000Z,274.27
2023-03-07T21:19:25.000Z,274.27
2023-03-07T21:21:32.000Z,274.21
2023-03-07T21:22:58.000Z,274.27
2023-03-07T21:25:04.000Z,274.27
2023-03-07T21:26:31.000Z,274.27
2023-03-07T21:28:37.000Z,274.21
2023-03-07T21:30:03.000Z,274.21
2023-03-07T21:32:10.000Z,274.21
2023-03-07T21:35:01.000Z,274.21
2023-03-07T21:36:27.000Z,274.21
2023-03-07T21:38:33.000Z,274.15
2023-03-07T21:40:00.000Z,274.21
2023-03-07T21:42:06.000Z,274.15
2023-03-07T21:43:33.000Z,274.15
2023-03-07T21:45:39.000Z,274.21
2023-03-07T21:47:05.000Z,274.21
2023-03-07T21:49:11.000Z,274.21
2023-03-07T21:50:38.000Z,274.21
2023-03-07T21:52:44.000Z,274.15
2023-03-07T21:54:11.000Z,274.15
2023-03-07T21:56:17.000Z,274.15
2023-03-07T21:57:43.000Z,274.15
2023-03-07T21:59:49.000Z,274.15
2023-03-07T22:01:16.000Z,274.15
2023-03-07T22:03:22.000Z,274.09
2023-03-07T22:04:49.000Z,274.15
2023-03-07T22:06:55.000Z,274.15
2023-03-07T22:08:21.000Z,274.15
2023-03-07T22:10:27.000Z,274.15
2023-03-07T22:13:19.000Z,274.09
2023-03-07T22:14:45.000Z,274.15
2023-03-07T22:16:51.000Z,274.09
2023-03-07T22:18:18.000Z,274.09
2023-03-07T22:20:24.000Z,274.09
2023-03-07T22:21:51.000Z,274.09
2023-03-07T22:23:57.000Z,274.09
2023-03-07T22:25:23.000Z,274.09
2023-03-07T22:27:29.000Z,274.09
2023-03-07T22:28:56.000Z,274.09
2023-03-07T22:31:02.000Z,274.09
2023-03-07T22:32:28.000Z,274.15
2023-03-07T22:34:35.000Z,274.09
2023-03-07T22:36:01.000Z,274.09
2023-03-07T22:38:07.000Z,274.15
2023-03-07T22:39:34.000Z,274.15
2023-03-07T22:41:40.000Z,274.15
2023-03-07T22:43:07.000Z,274.15
2023-03-07T22:45:13.000Z,274.09
2023-03-07T22:46:40.000Z,274.15
2023-03-07T22:48:46.000Z,274.15
2023-03-07T22:51:37.000Z,274.15